createdAt,value
2019-03-25T00:00:37.698Z,66.81
2019-03-25T00:01:18.154Z,67.57
2019-03-25T00:01:58.596Z,67.47
2019-03-25T00:02:38.988Z,67
2019-03-25T00:03:19.431Z,67.29
2019-03-25T00:03:59.795Z,67.57
2019-03-25T00:04:40.220Z,67.57
2019-03-25T00:05:20.629Z,67.86
2019-03-25T00:06:01.058Z,67.95
2019-03-25T00:06:42.394Z,67.38
2019-03-25T00:07:22.790Z,67.57
2019-03-25T00:08:03.181Z,67.47
2019-03-25T00:08:44.504Z,67.47
2019-03-25T00:09:24.931Z,67.67
2019-03-25T00:10:05.362Z,67.29
2019-03-25T00:10:45.701Z,67.29
2019-03-25T00:11:26.168Z,67.47
2019-03-25T00:12:06.517Z,66.91
2019-03-25T00:12:46.914Z,67.35
2019-03-25T00:13:27.288Z,67.35
2019-03-25T00:14:07.713Z,67.82
2019-03-25T00:14:48.085Z,67.92
2019-03-25T00:15:28.490Z,67.92
2019-03-25T00:16:08.921Z,68.21
2019-03-25T00:16:49.305Z,68.05
2019-03-25T00:17:29.694Z,67.92
2019-03-25T00:18:10.084Z,68.05
2019-03-25T00:18:50.506Z,68.05
2019-03-25T00:19:30.889Z,67.86
2019-03-25T00:20:11.305Z,68.05
2019-03-25T00:20:51.715Z,68.05
2019-03-25T00:21:32.102Z,67.95
2019-03-25T00:22:12.502Z,67.38
2019-03-25T00:22:52.941Z,67.86
2019-03-25T00:23:33.311Z,68.24
2019-03-25T00:24:13.725Z,67.38
2019-03-25T00:24:54.140Z,67.57
2019-03-25T00:25:34.554Z,67.47
2019-03-25T00:26:14.977Z,67.54
2019-03-25T00:26:55.380Z,67.95
2019-03-25T00:27:35.795Z,68.21
2019-03-25T00:28:17.136Z,67.95
2019-03-25T00:28:57.505Z,67.47
2019-03-25T00:29:37.981Z,67.57
2019-03-25T00:30:18.339Z,66.91
2019-03-25T00:30:59.694Z,67.57
2019-03-25T00:31:40.070Z,67.47
2019-03-25T00:32:20.481Z,67.19
2019-03-25T00:33:00.904Z,66.91
2019-03-25T00:33:42.147Z,67.19
2019-03-25T00:34:22.548Z,66.43
2019-03-25T00:35:02.931Z,66.81
2019-03-25T00:35:43.412Z,65.95
2019-03-25T00:36:23.771Z,66.14
2019-03-25T00:37:04.177Z,66.72
2019-03-25T00:37:44.551Z,66.81
2019-03-25T00:38:24.944Z,66.97
2019-03-25T00:39:05.323Z,66.78
2019-03-25T00:39:45.721Z,67.54
2019-03-25T00:40:26.112Z,67.44
2019-03-25T00:41:06.563Z,67.92
2019-03-25T00:41:46.956Z,68.01
2019-03-25T00:42:27.324Z,67.82
2019-03-25T00:43:07.731Z,68.01
2019-03-25T00:43:49.761Z,67.73
2019-03-25T00:44:30.155Z,67.25
2019-03-25T00:45:10.587Z,67.35
2019-03-25T00:45:51.004Z,68.11
2019-03-25T00:46:31.397Z,67.82
2019-03-25T00:47:11.844Z,67.25
2019-03-25T00:47:52.183Z,67.82
2019-03-25T00:48:32.568Z,67.92
2019-03-25T00:49:12.976Z,67.73
2019-03-25T00:49:53.404Z,67.82
2019-03-25T00:50:33.794Z,67.25
2019-03-25T00:51:14.174Z,68.11
2019-03-25T00:51:54.587Z,67.82
2019-03-25T00:52:34.957Z,67.82
2019-03-25T00:53:15.378Z,68.11
2019-03-25T00:53:55.742Z,67.73
2019-03-25T00:54:36.179Z,67.35
2019-03-25T00:55:16.537Z,67.44
2019-03-25T00:55:56.993Z,67.82
2019-03-25T00:56:37.342Z,67.54
2019-03-25T00:57:17.766Z,68.01
2019-03-25T00:57:58.144Z,67.92
2019-03-25T00:58:38.610Z,68.11
2019-03-25T00:59:19.015Z,68.3
2019-03-25T00:59:59.391Z,67.82
2019-03-25T01:00:39.753Z,68.11
2019-03-25T01:01:20.157Z,68.01
2019-03-25T01:02:00.557Z,68.01
2019-03-25T01:02:49.963Z,68.11
2019-03-25T01:03:30.383Z,68.11
2019-03-25T01:04:10.777Z,68.11
2019-03-25T01:04:51.180Z,67.92
2019-03-25T01:05:31.611Z,68.59
2019-03-25T01:06:12.020Z,67.82
2019-03-25T01:06:52.429Z,67.92
2019-03-25T01:07:32.833Z,67.73
2019-03-25T01:08:13.235Z,67.73
2019-03-25T01:08:53.654Z,67.92
2019-03-25T01:09:34.062Z,68.59
2019-03-25T01:10:14.464Z,68.4
2019-03-25T01:10:54.926Z,69.06
2019-03-25T01:11:35.319Z,69.15
2019-03-25T01:12:15.678Z,68.77
2019-03-25T01:12:56.100Z,67.92
2019-03-25T01:13:36.488Z,68.01
2019-03-25T01:14:16.916Z,68.3
2019-03-25T01:14:57.297Z,67.92
2019-03-25T01:15:37.723Z,67.82
2019-03-25T01:16:18.145Z,67.82
2019-03-25T01:16:58.528Z,69.06
2019-03-25T01:17:38.953Z,68.96
2019-03-25T01:18:19.413Z,68.46
2019-03-25T01:18:59.872Z,68.84
2019-03-25T01:19:40.291Z,69.21
2019-03-25T01:20:20.748Z,69.98
2019-03-25T01:21:01.129Z,69.69
2019-03-25T01:21:41.532Z,69.88
2019-03-25T01:22:21.915Z,70.07
2019-03-25T01:23:02.334Z,69.69
2019-03-25T01:23:42.724Z,69.6
2019-03-25T01:24:23.155Z,69.69
2019-03-25T01:25:03.626Z,70.64
2019-03-25T01:25:43.963Z,70.74
2019-03-25T01:26:24.364Z,71.59
2019-03-25T01:27:04.780Z,71.78
2019-03-25T01:27:45.227Z,70.93
2019-03-25T01:28:25.590Z,70.93
2019-03-25T01:29:06.005Z,70.64
2019-03-25T01:29:46.404Z,70.17
2019-03-25T01:30:26.843Z,69.88
2019-03-25T01:31:07.239Z,69.6
2019-03-25T01:31:47.668Z,69.69
2019-03-25T01:32:28.071Z,69.69
2019-03-25T01:33:08.514Z,69.88
2019-03-25T01:33:48.899Z,71.12
2019-03-25T01:34:29.302Z,70.93
2019-03-25T01:35:09.752Z,70.26
2019-03-25T01:35:50.098Z,70.17
2019-03-25T01:36:30.503Z,70.36
2019-03-25T01:37:10.935Z,70.36
2019-03-25T01:37:51.304Z,70.36
2019-03-25T01:38:31.695Z,71.31
2019-03-25T01:39:12.088Z,70.93
2019-03-25T01:39:52.493Z,70.83
2019-03-25T01:40:32.917Z,70.74
2019-03-25T01:41:13.334Z,71.22
2019-03-25T01:41:53.739Z,71.31
2019-03-25T01:42:34.120Z,71.02
2019-03-25T01:43:14.515Z,71.02
2019-03-25T01:43:55.239Z,71.78
2019-03-25T01:44:35.329Z,71.82
2019-03-25T01:45:15.729Z,70.83
2019-03-25T01:45:56.098Z,70.17
2019-03-25T01:46:36.481Z,70.93
2019-03-25T01:47:16.857Z,71.31
2019-03-25T01:47:57.235Z,70.83
2019-03-25T01:48:37.676Z,71.12
2019-03-25T01:49:18.001Z,71.5
2019-03-25T01:49:58.404Z,71.59
2019-03-25T01:50:38.848Z,71.88
2019-03-25T01:51:19.189Z,72.16
2019-03-25T01:51:59.576Z,71.78
2019-03-25T01:52:39.959Z,72.35
2019-03-25T01:53:20.378Z,71.78
2019-03-25T01:54:00.759Z,72.26
2019-03-25T01:54:41.450Z,72.64
2019-03-25T01:55:21.634Z,73.11
2019-03-25T01:56:02.050Z,73.11
2019-03-25T01:56:42.457Z,73.3
2019-03-25T01:57:22.893Z,73.59
2019-03-25T01:58:03.284Z,72.74
2019-03-25T01:58:43.640Z,72.74
2019-03-25T01:59:24.046Z,73.3
2019-03-25T02:00:04.434Z,73.11
2019-03-25T02:00:44.873Z,73.3
2019-03-25T02:01:25.218Z,72.35
2019-03-25T02:02:05.625Z,73.11
2019-03-25T02:02:46.076Z,73.78
2019-03-25T02:03:26.408Z,73.21
2019-03-25T02:04:06.828Z,72.92
2019-03-25T02:04:47.197Z,72.55
2019-03-25T02:05:27.580Z,72.64
2019-03-25T02:06:08.017Z,72.74
2019-03-25T02:06:48.389Z,72.92
2019-03-25T02:07:28.767Z,72.74
2019-03-25T02:08:09.169Z,71.31
2019-03-25T02:08:49.580Z,71.69
2019-03-25T02:09:29.946Z,71.41
2019-03-25T02:10:10.311Z,72.07
2019-03-25T02:10:50.689Z,71.88
2019-03-25T02:11:31.111Z,72.07
2019-03-25T02:12:11.508Z,71.5
2019-03-25T02:12:51.895Z,71.02
2019-03-25T02:13:32.293Z,71.63
2019-03-25T02:14:12.664Z,71.12
2019-03-25T02:14:53.088Z,71.15
2019-03-25T02:15:33.463Z,71.06
2019-03-25T02:16:13.874Z,71.06
2019-03-25T02:16:54.270Z,70.87
2019-03-25T02:17:34.654Z,70.39
2019-03-25T02:18:15.029Z,69.54
2019-03-25T02:18:55.415Z,69.73
2019-03-25T02:20:47.904Z,69.25
2019-03-25T02:21:28.370Z,69.48
2019-03-25T02:22:08.778Z,68.81
2019-03-25T02:22:49.237Z,68.81
2019-03-25T02:23:29.571Z,68.68
2019-03-25T02:24:09.983Z,67.76
2019-03-25T02:24:50.377Z,68.9
2019-03-25T02:25:30.765Z,68.33
2019-03-25T02:26:11.210Z,68.24
2019-03-25T02:26:51.632Z,68.15
2019-03-25T02:27:32.031Z,67.76
2019-03-25T02:28:12.848Z,67.95
2019-03-25T02:28:53.291Z,67.86
2019-03-25T02:29:33.631Z,68.05
2019-03-25T02:30:14.017Z,67.76
2019-03-25T02:30:54.436Z,67.47
2019-03-25T02:31:35.702Z,66.53
2019-03-25T02:32:16.036Z,66.62
2019-03-25T02:32:56.435Z,66.81
2019-03-25T02:33:36.826Z,66.66
2019-03-25T02:34:17.207Z,65.7
2019-03-25T02:34:57.625Z,65.23
2019-03-25T02:35:38.154Z,65.03
2019-03-25T02:36:18.559Z,65.03
2019-03-25T02:36:58.992Z,64.56
2019-03-25T02:37:39.352Z,64.56
2019-03-25T02:38:19.728Z,64.08
2019-03-25T02:39:00.278Z,63.8
2019-03-25T02:39:40.620Z,63.8
2019-03-25T02:40:21.062Z,63.7
2019-03-25T02:41:01.454Z,63.89
2019-03-25T02:41:41.806Z,63.99
2019-03-25T02:42:22.178Z,63.51
2019-03-25T02:43:02.581Z,63.23
2019-03-25T02:43:42.986Z,62.94
2019-03-25T02:44:23.408Z,63.26
2019-03-25T02:45:03.839Z,62.88
2019-03-25T02:45:44.246Z,63.07
2019-03-25T02:46:24.758Z,62.78
2019-03-25T02:47:05.143Z,62.12
2019-03-25T02:47:45.543Z,62.68
2019-03-25T02:48:25.998Z,62.49
2019-03-25T02:49:06.382Z,62.59
2019-03-25T02:49:46.770Z,62.68
2019-03-25T02:50:27.154Z,63.35
2019-03-25T02:51:07.540Z,63.17
2019-03-25T02:51:47.976Z,62.88
2019-03-25T02:52:28.333Z,62.21
2019-03-25T02:53:08.740Z,62.59
2019-03-25T02:53:49.137Z,62.88
2019-03-25T02:54:29.565Z,62.3
2019-03-25T02:55:09.968Z,62.49
2019-03-25T02:55:50.374Z,62.78
2019-03-25T02:56:30.776Z,62.49
2019-03-25T02:57:11.196Z,62.78
2019-03-25T02:57:51.538Z,62.3
2019-03-25T02:58:31.950Z,62.68
2019-03-25T02:59:12.321Z,62.59
2019-03-25T02:59:52.709Z,62.68
2019-03-25T03:00:33.076Z,62.78
2019-03-25T03:01:13.546Z,62.4
2019-03-25T03:01:54.821Z,62.59
2019-03-25T03:02:35.370Z,62.49
2019-03-25T03:03:15.736Z,62.4
2019-03-25T03:03:56.125Z,62.49
2019-03-25T03:04:36.570Z,62.4
2019-03-25T03:05:16.926Z,62.68
2019-03-25T03:05:57.325Z,63.45
2019-03-25T03:06:37.745Z,63.26
2019-03-25T03:07:18.120Z,62.4
2019-03-25T03:07:58.550Z,63.17
2019-03-25T03:08:40.908Z,62.97
2019-03-25T03:09:21.458Z,63.26
2019-03-25T03:10:01.816Z,63.92
2019-03-25T03:10:42.211Z,63.92
2019-03-25T03:11:22.584Z,63.54
2019-03-25T03:12:03.007Z,63.54
2019-03-25T03:12:45.640Z,64.21
2019-03-25T03:13:26.041Z,64.02
2019-03-25T03:14:06.437Z,64.21
2019-03-25T03:14:46.884Z,64.31
2019-03-25T03:15:27.274Z,63.92
2019-03-25T03:16:07.659Z,63.26
2019-03-25T03:16:48.132Z,63.07
2019-03-25T03:17:28.549Z,63.07
2019-03-25T03:18:08.950Z,63.07
2019-03-25T03:18:49.594Z,63.07
2019-03-25T03:19:29.943Z,63.07
2019-03-25T03:20:10.350Z,63.17
2019-03-25T03:20:51.152Z,63.26
2019-03-25T03:21:31.697Z,63.45
2019-03-25T03:22:12.110Z,62.91
2019-03-25T03:22:52.577Z,63.2
2019-03-25T03:23:32.897Z,62.72
2019-03-25T03:24:13.350Z,62.72
2019-03-25T03:24:53.696Z,62.34
2019-03-25T03:25:34.808Z,62.52
2019-03-25T03:26:15.149Z,62.81
2019-03-25T03:26:55.459Z,62.15
2019-03-25T03:27:35.875Z,62.43
2019-03-25T03:28:16.302Z,62.52
2019-03-25T03:28:56.699Z,62.62
2019-03-25T03:29:37.085Z,62.72
2019-03-25T03:30:17.457Z,62.72
2019-03-25T03:30:57.906Z,63
2019-03-25T03:31:38.248Z,63.48
2019-03-25T03:32:18.763Z,63.57
2019-03-25T03:32:59.627Z,63.1
2019-03-25T03:33:39.975Z,63.2
2019-03-25T03:34:20.441Z,63.39
2019-03-25T03:35:01.082Z,63.57
2019-03-25T03:35:41.155Z,63.2
2019-03-25T03:36:22.820Z,63.1
2019-03-25T03:37:03.177Z,63.2
2019-03-25T03:37:45.497Z,62.43
2019-03-25T03:38:26.607Z,62.91
2019-03-25T03:39:06.828Z,62.43
2019-03-25T03:39:47.173Z,63
2019-03-25T03:40:27.618Z,63.29
2019-03-25T03:41:08.022Z,63.2
2019-03-25T03:41:48.382Z,63.2
2019-03-25T03:42:28.769Z,63.57
2019-03-25T03:43:09.148Z,63.76
2019-03-25T03:43:49.580Z,63.57
2019-03-25T03:44:29.985Z,64.05
2019-03-25T03:45:11.292Z,63.76
2019-03-25T03:45:51.660Z,63.96
2019-03-25T03:46:32.163Z,63.76
2019-03-25T03:47:12.450Z,63.67
2019-03-25T03:47:52.838Z,63.76
2019-03-25T03:48:33.243Z,64.15
2019-03-25T03:49:13.653Z,64.24
2019-03-25T03:49:54.057Z,64.15
2019-03-25T03:50:34.446Z,64.05
2019-03-25T03:51:14.882Z,64.15
2019-03-25T03:51:55.214Z,64.78
2019-03-25T03:52:35.771Z,64.87
2019-03-25T03:53:16.167Z,65.07
2019-03-25T03:53:56.883Z,65.45
2019-03-25T03:54:37.265Z,65.36
2019-03-25T03:55:18.626Z,65.26
2019-03-25T03:56:11.858Z,65.16
2019-03-25T03:56:39.446Z,65.16
2019-03-25T03:57:19.863Z,65.1
2019-03-25T03:58:00.244Z,65.26
2019-03-25T03:58:41.624Z,65.29
2019-03-25T03:59:21.992Z,65.39
2019-03-25T04:00:04.110Z,65.1
2019-03-25T04:00:53.500Z,64.91
2019-03-25T04:01:33.919Z,65.39
2019-03-25T04:02:14.339Z,65.2
2019-03-25T04:02:56.548Z,65.58
2019-03-25T04:03:37.002Z,65.55
2019-03-25T04:04:17.377Z,65.64
2019-03-25T04:04:57.796Z,65.55
2019-03-25T04:05:39.902Z,65.73
2019-03-25T04:06:20.273Z,65.96
2019-03-25T04:07:00.812Z,65.92
2019-03-25T04:07:41.061Z,66.31
2019-03-25T04:08:21.490Z,65.83
2019-03-25T04:09:03.690Z,65.73
2019-03-25T04:09:44.099Z,66.11
2019-03-25T04:10:24.470Z,66.59
2019-03-25T04:11:04.871Z,66.78
2019-03-25T04:11:45.356Z,66.69
2019-03-25T04:12:25.762Z,66.69
2019-03-25T04:13:06.164Z,66.59
2019-03-25T04:13:48.648Z,66.69
2019-03-25T04:14:31.019Z,66.69
2019-03-25T04:15:11.383Z,66.69
2019-03-25T04:15:51.682Z,67.07
2019-03-25T04:16:32.125Z,66.88
2019-03-25T04:17:12.495Z,67.74
2019-03-25T04:17:52.917Z,67.64
2019-03-25T04:18:33.254Z,67.83
2019-03-25T04:19:15.219Z,66.69
2019-03-25T04:19:55.642Z,66.69
2019-03-25T04:20:35.987Z,67.35
2019-03-25T04:21:16.383Z,67.07
2019-03-25T04:21:57.027Z,67.16
2019-03-25T04:22:37.334Z,67.07
2019-03-25T04:23:19.758Z,67.64
2019-03-25T04:24:00.088Z,67.45
2019-03-25T04:24:40.493Z,67.45
2019-03-25T04:25:22.860Z,67.07
2019-03-25T04:26:03.262Z,67.45
2019-03-25T04:26:43.613Z,67.64
2019-03-25T04:27:24.039Z,67.58
2019-03-25T05:06:44.302Z,70.88
2019-03-25T05:07:26.550Z,70.69
2019-03-25T05:08:06.921Z,70.97
2019-03-25T05:08:47.311Z,71.45
2019-03-25T05:09:28.053Z,71.07
2019-03-25T05:10:08.392Z,71.93
2019-03-25T05:10:51.770Z,71.73
2019-03-25T05:11:32.125Z,71.73
2019-03-25T05:13:19.825Z,71.64
2019-03-25T05:14:03.658Z,71.93
2019-03-25T05:14:47.544Z,71.55
2019-03-25T05:15:28.013Z,71.64
2019-03-25T05:16:11.239Z,71.07
2019-03-25T05:16:51.613Z,71.36
2019-03-25T05:17:32.059Z,70.97
2019-03-25T05:18:12.482Z,71.26
2019-03-25T05:18:56.535Z,72.02
2019-03-25T05:19:36.942Z,71.83
2019-03-25T05:20:17.414Z,71.73
2019-03-25T05:20:57.771Z,71.93
2019-03-25T05:21:40.104Z,71.83
2019-03-25T05:22:20.539Z,71.55
2019-03-25T05:23:00.940Z,71.83
2019-03-25T05:23:41.294Z,71.8
2019-03-25T05:24:21.714Z,72.17
2019-03-25T05:25:02.190Z,72.75
2019-03-25T05:25:42.573Z,72.85
2019-03-25T05:26:22.992Z,73.32
2019-03-25T05:27:04.741Z,73.03
2019-03-25T05:27:44.967Z,73.8
2019-03-25T05:28:25.416Z,73.89
2019-03-25T05:29:05.933Z,74.65
2019-03-25T05:29:46.485Z,75.51
2019-03-25T05:30:26.839Z,76.37
2019-03-25T05:31:10.808Z,77.89
2019-03-25T05:31:51.229Z,78.94
2019-03-25T05:32:33.489Z,79.41
2019-03-25T05:33:14.004Z,79.41
2019-03-25T05:33:54.583Z,79.7
2019-03-25T05:34:36.564Z,80.18
2019-03-25T05:35:16.961Z,80.08
2019-03-25T05:35:59.243Z,79.8
2019-03-25T05:36:43.212Z,80.46
2019-03-25T05:37:23.593Z,80.33
2019-03-25T05:38:05.991Z,80.61
2019-03-25T05:38:48.012Z,80.23
2019-03-25T05:39:30.403Z,80.13
2019-03-25T05:40:10.832Z,80.84
2019-03-25T05:40:52.854Z,80.99
2019-03-25T05:41:33.413Z,80.55
2019-03-25T05:42:16.250Z,79.85
2019-03-25T05:42:56.676Z,80.42
2019-03-25T05:43:37.156Z,81.47
2019-03-25T05:44:21.308Z,81.28
2019-03-25T05:45:01.731Z,80.75
2019-03-25T05:45:42.181Z,80.36
2019-03-25T05:46:22.586Z,80.18
2019-03-25T05:47:04.823Z,80.18
2019-03-25T05:47:49.060Z,80.8
2019-03-25T05:48:30.435Z,80.33
2019-03-25T05:49:10.774Z,80.99
2019-03-25T05:49:53.194Z,81.28
2019-03-25T05:50:33.664Z,81.18
2019-03-25T05:51:14.740Z,81.76
2019-03-25T05:51:55.176Z,81.85
2019-03-25T05:52:35.767Z,81.95
2019-03-25T05:53:16.509Z,81.47
2019-03-25T05:53:56.623Z,81.28
2019-03-25T05:54:37.483Z,81.47
2019-03-25T05:55:18.120Z,81.76
2019-03-25T05:55:58.564Z,81.37
2019-03-25T05:56:40.828Z,81.85
2019-03-25T05:57:21.243Z,82.42
2019-03-25T05:58:01.627Z,82.42
2019-03-25T05:58:42.017Z,81.85
2019-03-25T05:59:22.436Z,81.41
2019-03-25T06:00:05.068Z,80.94
2019-03-25T06:00:45.435Z,81.03
2019-03-25T06:01:26.728Z,80.33
2019-03-25T06:02:07.236Z,81.37
2019-03-25T06:02:47.670Z,81.6
2019-03-25T06:03:28.070Z,80.75
2019-03-25T06:04:08.452Z,81.03
2019-03-25T06:04:48.848Z,80.84
2019-03-25T06:05:29.313Z,80.18
2019-03-25T06:06:09.683Z,79.6
2019-03-25T06:06:52.101Z,80.55
2019-03-25T06:07:30.514Z,80.55
2019-03-25T06:08:10.975Z,80.84
2019-03-25T06:08:51.383Z,81.23
2019-03-25T06:09:31.871Z,80.46
2019-03-25T06:10:12.401Z,79.89
2019-03-25T06:10:52.823Z,80.55
2019-03-25T06:11:33.240Z,80.94
2019-03-25T06:12:13.644Z,80.84
2019-03-25T06:12:53.990Z,80.46
2019-03-25T06:13:34.462Z,79.32
2019-03-25T06:14:14.939Z,79.32
2019-03-25T06:14:55.932Z,79.6
2019-03-25T06:15:36.314Z,79.41
2019-03-25T06:16:16.713Z,79.6
2019-03-25T06:16:57.142Z,79.51
2019-03-25T06:17:37.507Z,79.22
2019-03-25T06:18:20.491Z,79.6
2019-03-25T06:19:00.028Z,78.75
2019-03-25T06:19:40.475Z,78.65
2019-03-25T06:20:20.861Z,78.65
2019-03-25T06:21:01.329Z,78.88
2019-03-25T06:21:42.853Z,79.74
2019-03-25T06:22:23.259Z,80.02
2019-03-25T06:23:04.569Z,79.36
2019-03-25T06:23:44.974Z,78.12
2019-03-25T06:24:25.432Z,78.31
2019-03-25T06:25:05.805Z,77.64
2019-03-25T06:25:47.350Z,78.5
2019-03-25T06:26:27.814Z,78.12
2019-03-25T06:27:13.882Z,78.12
2019-03-25T06:27:48.577Z,78.5
2019-03-25T06:28:28.933Z,78.46
2019-03-25T06:29:09.349Z,78.46
2019-03-25T06:29:50.454Z,78.22
2019-03-25T06:30:35.315Z,78.12
2019-03-25T06:31:15.805Z,78.59
2019-03-25T06:31:56.189Z,78.37
2019-03-25T06:32:38.618Z,78.85
2019-03-25T06:37:12.283Z,78.37
2019-03-25T06:37:55.051Z,78.37
2019-03-25T06:38:39.055Z,78.69
2019-03-25T06:39:20.201Z,77.64
2019-03-25T06:40:02.107Z,76.82
2019-03-25T06:40:48.967Z,75.11
2019-03-25T06:41:27.404Z,73.96
2019-03-25T06:42:09.790Z,73.24
2019-03-25T06:42:50.382Z,72.57
2019-03-25T06:43:30.869Z,70.89
2019-03-25T06:44:11.700Z,69.56
2019-03-25T06:44:53.733Z,67.93
2019-03-25T06:45:34.273Z,67.55
2019-03-25T06:46:16.746Z,67.17
2019-03-25T06:46:57.962Z,67.65
2019-03-25T06:47:40.593Z,67.97
2019-03-25T06:48:23.681Z,66.72
2019-03-25T06:49:04.005Z,67.3
2019-03-25T06:49:51.163Z,67.11
2019-03-25T06:50:32.853Z,66.72
2019-03-25T06:51:13.386Z,66.15
2019-03-25T06:51:57.281Z,66.06
2019-03-25T06:52:37.826Z,65.87
2019-03-25T06:53:21.349Z,65.48
2019-03-25T06:54:06.200Z,65.23
2019-03-25T06:54:49.511Z,64.65
2019-03-25T06:55:30.184Z,64.28
2019-03-25T06:56:13.397Z,63.89
2019-03-25T06:56:54.755Z,63.42
2019-03-25T06:57:38.556Z,63.42
2019-03-25T06:58:18.810Z,63.13
2019-03-25T06:58:59.216Z,63.32
2019-03-25T06:59:41.339Z,64.18
2019-03-25T07:00:21.812Z,63.89
2019-03-25T07:01:04.056Z,64.47
2019-03-25T07:01:44.645Z,65.01
2019-03-25T07:02:24.982Z,65.3
2019-03-25T07:03:12.231Z,65.48
2019-03-25T07:03:52.817Z,65.67
2019-03-25T07:04:35.091Z,65.3
2019-03-25T07:05:17.220Z,65.3
2019-03-25T07:05:58.557Z,66.06
2019-03-25T07:06:39.040Z,66.35
2019-03-25T07:07:25.236Z,65.83
2019-03-25T07:08:07.041Z,66.02
2019-03-25T07:08:49.085Z,66.41
2019-03-25T07:09:29.533Z,67.07
2019-03-25T07:10:10.005Z,66.88
2019-03-25T07:10:50.473Z,66.78
2019-03-25T07:11:31.243Z,66.69
2019-03-25T07:12:14.656Z,66.53
2019-03-25T07:12:56.049Z,64.91
2019-03-25T07:15:15.823Z,63.48
2019-03-25T07:15:58.056Z,62.91
2019-03-25T07:16:40.271Z,62.55
2019-03-25T07:21:20.387Z,62.55
2019-03-25T07:21:59.773Z,60.68
2019-03-25T07:22:40.182Z,60.39
2019-03-25T07:23:20.640Z,60.3
2019-03-25T07:24:02.686Z,59.91
2019-03-25T07:24:45.060Z,59.27
2019-03-25T07:25:27.024Z,58.58
2019-03-25T07:26:07.678Z,59.27
2019-03-25T07:26:48.834Z,59.15
2019-03-25T07:27:36.826Z,58.95
2019-03-25T07:28:14.485Z,58.95
2019-03-25T07:28:54.897Z,59.15
2019-03-25T07:29:35.399Z,59.63
2019-03-25T07:30:16.239Z,59.81
2019-03-25T07:30:59.494Z,59.53
2019-03-25T07:31:39.956Z,59.41
2019-03-25T07:32:25.922Z,60.07
2019-03-25T07:33:06.336Z,59.98
2019-03-25T07:33:47.617Z,60.17
2019-03-25T07:34:30.009Z,60.74
2019-03-25T07:35:11.147Z,60.64
2019-03-25T07:35:54.605Z,61.22
2019-03-25T07:36:36.004Z,61.03
2019-03-25T07:37:16.091Z,60.74
2019-03-25T07:37:57.705Z,61.22
2019-03-25T07:38:38.521Z,61.22
2019-03-25T07:39:19.556Z,60.93
2019-03-25T07:40:00.045Z,60.84
2019-03-25T07:40:40.671Z,61.32
2019-03-25T07:41:21.045Z,61.79
2019-03-25T07:42:01.445Z,61.98
2019-03-25T07:42:43.408Z,60.55
2019-03-25T07:43:23.870Z,60.52
2019-03-25T07:44:08.584Z,61.29
2019-03-25T07:44:48.516Z,61.47
2019-03-25T07:45:31.711Z,61.57
2019-03-25T07:46:14.571Z,62.52
2019-03-25T07:46:58.429Z,62.24
2019-03-25T07:47:40.264Z,62.62
2019-03-25T07:48:21.837Z,62.43
2019-03-25T07:49:03.947Z,62.21
2019-03-25T07:49:44.540Z,62.49
2019-03-25T07:50:26.587Z,62.59
2019-03-25T07:51:07.530Z,62.49
2019-03-25T07:51:47.795Z,62.21
2019-03-25T07:52:28.177Z,62.88
2019-03-25T07:53:10.649Z,62.4
2019-03-25T07:53:52.963Z,62.68
2019-03-25T07:54:36.084Z,62.88
2019-03-25T07:55:16.505Z,62.97
2019-03-25T07:55:57.907Z,62.02
2019-03-25T07:56:40.274Z,61.83
2019-03-25T07:57:21.768Z,62.11
2019-03-25T07:59:17.534Z,61.95
2019-03-25T07:59:58.662Z,61.44
2019-03-25T08:00:38.981Z,61.63
2019-03-25T08:01:19.498Z,62.59
2019-03-25T08:02:01.102Z,62.21
2019-03-25T08:02:47.183Z,62.88
2019-03-25T08:03:27.684Z,62.3
2019-03-25T08:04:11.281Z,62.49
2019-03-25T08:04:51.608Z,62.88
2019-03-25T08:05:32.110Z,62.21
2019-03-25T08:06:13.348Z,62.68
2019-03-25T08:06:55.099Z,62.49
2019-03-25T08:07:38.671Z,62.49
2019-03-25T08:08:19.100Z,62.59
2019-03-25T08:09:03.885Z,62.49
2019-03-25T08:09:42.473Z,61.95
2019-03-25T08:10:32.663Z,61.57
2019-03-25T08:11:16.527Z,60.81
2019-03-25T08:11:58.072Z,60.52
2019-03-25T08:12:38.600Z,60.04
2019-03-25T08:13:19.124Z,60.71
2019-03-25T08:13:59.860Z,60.33
2019-03-25T08:14:42.923Z,60.24
2019-03-25T08:15:24.479Z,59.95
2019-03-25T08:16:04.750Z,59.76
2019-03-25T08:16:45.478Z,60.11
2019-03-25T08:17:26.940Z,60.02
2019-03-25T08:18:09.781Z,60.21
2019-03-25T08:18:50.288Z,60.78
2019-03-25T08:19:35.615Z,61.07
2019-03-25T08:20:21.204Z,60.39
2019-03-25T08:21:07.622Z,59.44
2019-03-25T08:21:50.423Z,60.11
2019-03-25T08:22:34.537Z,60.58
2019-03-25T08:23:18.029Z,60.97
2019-03-25T08:24:00.417Z,62.02
2019-03-25T08:24:47.138Z,62.11
2019-03-25T08:25:28.322Z,61.83
2019-03-25T08:26:13.547Z,62.3
2019-03-25T08:26:54.017Z,61.86
2019-03-25T08:27:34.547Z,62.34
2019-03-25T08:28:16.278Z,61.1
2019-03-25T08:29:01.585Z,61.19
2019-03-25T08:29:42.057Z,61.95
2019-03-25T08:30:23.360Z,62.62
2019-03-25T08:31:04.024Z,64.25
2019-03-25T08:31:48.492Z,64.91
2019-03-25T08:32:32.415Z,63.67
2019-03-25T08:33:13.074Z,63.8
2019-03-25T08:33:54.321Z,63.03
2019-03-25T08:34:34.726Z,62.94
2019-03-25T08:35:15.366Z,61.98
2019-03-25T08:35:57.585Z,61.16
2019-03-25T08:36:41.864Z,60.58
2019-03-25T08:37:26.075Z,59.08
2019-03-25T08:38:07.131Z,59.08
2019-03-25T08:38:51.013Z,58.15
2019-03-25T08:39:31.439Z,56.91
2019-03-25T08:40:12.335Z,56.72
2019-03-25T08:40:53.340Z,56.72
2019-03-25T08:41:36.232Z,55.12
2019-03-25T08:42:17.544Z,54.8
2019-03-25T08:42:57.976Z,54.36
2019-03-25T08:43:38.582Z,53.88
2019-03-25T08:44:24.525Z,53.78
2019-03-25T08:45:05.034Z,53.4
2019-03-25T08:45:46.369Z,53.02
2019-03-25T08:46:26.685Z,53.11
2019-03-25T08:47:07.164Z,52.92
2019-03-25T08:47:47.633Z,51.87
2019-03-25T08:48:28.235Z,52.28
2019-03-25T08:49:11.892Z,51.99
2019-03-25T08:49:52.009Z,51.25
2019-03-25T08:50:32.762Z,50.96
2019-03-25T08:51:14.927Z,50.38
2019-03-25T08:51:56.986Z,49.62
2019-03-25T08:52:37.813Z,49.55
2019-03-25T08:53:18.622Z,48.59
2019-03-25T08:54:00.782Z,48.13
2019-03-25T08:54:41.182Z,46.89
2019-03-25T08:55:25.548Z,46.12
2019-03-25T08:56:09.288Z,46.03
2019-03-25T08:56:50.818Z,46.31
2019-03-25T08:57:31.329Z,46.19
2019-03-25T08:58:12.501Z,46.19
2019-03-25T08:58:52.481Z,46.36
2019-03-25T08:59:36.660Z,46.94
2019-03-25T09:00:17.144Z,47.32
2019-03-25T09:00:58.072Z,47.87
2019-03-25T09:01:39.371Z,48.35
2019-03-25T09:02:21.215Z,48.44
2019-03-25T09:03:02.181Z,48.9
2019-03-25T09:03:42.621Z,49.29
2019-03-25T09:04:23.486Z,49.48
2019-03-25T09:05:12.416Z,49.57
2019-03-25T09:05:52.628Z,50.24
2019-03-25T09:06:34.375Z,50.02
2019-03-25T09:07:22.541Z,50.6
2019-03-25T09:08:03.058Z,50.5
2019-03-25T09:08:44.290Z,50.31
2019-03-25T09:09:26.363Z,50.21
2019-03-25T09:10:07.443Z,50.31
2019-03-25T09:10:49.884Z,50.31
2019-03-25T09:11:37.659Z,50.79
2019-03-25T09:12:19.085Z,50.98
2019-03-25T09:13:01.443Z,50.67
2019-03-25T09:13:41.849Z,51.72
2019-03-25T09:14:22.593Z,51.05
2019-03-25T09:15:06.691Z,51.72
2019-03-25T09:15:51.677Z,52.36
2019-03-25T09:16:33.834Z,52.75
2019-03-25T09:17:17.038Z,53.41
2019-03-25T09:17:58.652Z,53.41
2019-03-25T09:18:39.605Z,53.7
2019-03-25T09:19:22.009Z,53.51
2019-03-25T09:20:06.252Z,53.32
2019-03-25T09:20:51.694Z,53.61
2019-03-25T09:21:35.475Z,53.7
2019-03-25T09:22:18.174Z,53.7
2019-03-25T09:23:02.574Z,54.47
2019-03-25T09:23:48.057Z,54.08
2019-03-25T09:24:32.985Z,54.47
2019-03-25T09:25:14.075Z,54.47
2019-03-25T09:25:56.665Z,53.61
2019-03-25T09:26:37.522Z,53.61
2019-03-25T09:27:21.465Z,53.99
2019-03-25T09:28:05.760Z,53.8
2019-03-25T09:28:48.193Z,54.47
2019-03-25T09:29:34.843Z,53.99
2019-03-25T09:30:16.948Z,54.11
2019-03-25T09:30:57.478Z,53.63
2019-03-25T09:31:39.428Z,53.75
2019-03-25T09:32:32.968Z,52.99
2019-03-25T09:33:16.062Z,50.72
2019-03-25T09:34:00.300Z,49
2019-03-25T09:34:47.097Z,48.8
2019-03-25T09:35:28.030Z,48.23
2019-03-25T09:36:11.547Z,47.75
2019-03-25T09:36:52.279Z,48.13
2019-03-25T09:37:32.762Z,48.52
2019-03-25T09:38:17.374Z,48.42
2019-03-25T09:39:17.508Z,49
2019-03-25T09:39:58.583Z,49.09
2019-03-25T09:40:41.443Z,48.61
2019-03-25T09:41:24.820Z,49
2019-03-25T09:42:05.384Z,48.78
2019-03-25T09:42:48.122Z,48.78
2019-03-25T09:43:32.650Z,49.35
2019-03-25T09:44:15.751Z,49.55